sensor_id;sensor_type;location;lat;lon;timestamp;P1;durP1;ratioP1;P2;durP2;ratioP2
11675;SDS011;5894;42.768;23.404;2023-04-01T00:01:07;13.00;;;7.73;;
11675;SDS011;5894;42.768;23.404;2023-04-01T00:03:34;15.47;;;9.50;;
11675;SDS011;5894;42.768;23.404;2023-04-01T00:06:01;20.13;;;11.40;;
11675;SDS011;5894;42.768;23.404;2023-04-01T00:08:29;18.97;;;10.50;;
11675;SDS011;5894;42.768;23.404;2023-04-01T00:10:57;19.27;;;9.40;;
11675;SDS011;5894;42.768;23.404;2023-04-01T00:13:24;16.73;;;8.93;;
11675;SDS011;5894;42.768;23.404;2023-04-01T00:15:52;15.27;;;8.40;;
11675;SDS011;5894;42.768;23.404;2023-04-01T00:18:19;13.90;;;7.97;;
11675;SDS011;5894;42.768;23.404;2023-04-01T00:20:46;15.80;;;7.93;;
11675;SDS011;5894;42.768;23.404;2023-04-01T00:23:15;12.77;;;7.40;;
11675;SDS011;5894;42.768;23.404;2023-04-01T00:25:43;13.37;;;8.23;;
11675;SDS011;5894;42.768;23.404;2023-04-01T00:28:13;12.53;;;7.87;;
11675;SDS011;5894;42.768;23.404;2023-04-01T00:30:40;13.90;;;7.50;;
11675;SDS011;5894;42.768;23.404;2023-04-01T00:33:07;14.53;;;9.07;;
11675;SDS011;5894;42.768;23.404;2023-04-01T00:35:34;13.83;;;8.50;;
11675;SDS011;5894;42.768;23.404;2023-04-01T00:38:01;13.67;;;8.20;;
11675;SDS011;5894;42.768;23.404;2023-04-01T00:40:29;12.90;;;7.47;;
11675;SDS011;5894;42.768;23.404;2023-04-01T00:42:59;12.80;;;7.00;;
11675;SDS011;5894;42.768;23.404;2023-04-01T00:45:28;9.63;;;6.10;;
11675;SDS011;5894;42.768;23.404;2023-04-01T00:47:58;10.77;;;7.13;;
11675;SDS011;5894;42.768;23.404;2023-04-01T00:50:28;12.47;;;7.43;;
11675;SDS011;5894;42.768;23.404;2023-04-01T00:52:57;12.60;;;7.80;;
11675;SDS011;5894;42.768;23.404;2023-04-01T00:55:25;14.13;;;8.07;;
11675;SDS011;5894;42.768;23.404;2023-04-01T00:57:54;18.10;;;9.27;;
11675;SDS011;5894;42.768;23.404;2023-04-01T01:00:25;15.70;;;8.90;;
11675;SDS011;5894;42.768;23.404;2023-04-01T01:02:52;15.23;;;9.63;;
11675;SDS011;5894;42.768;23.404;2023-04-01T01:05:20;18.43;;;11.17;;
11675;SDS011;5894;42.768;23.404;2023-04-01T01:07:58;21.67;;;12.57;;
11675;SDS011;5894;42.768;23.404;2023-04-01T01:10:31;22.57;;;14.00;;
11675;SDS011;5894;42.768;23.404;2023-04-01T01:13:02;23.43;;;14.73;;
11675;SDS011;5894;42.768;23.404;2023-04-01T01:15:39;28.10;;;14.57;;
11675;SDS011;5894;42.768;23.404;2023-04-01T01:18:15;21.03;;;12.00;;
11675;SDS011;5894;42.768;23.404;2023-04-01T01:21:15;18.80;;;11.00;;
11675;SDS011;5894;42.768;23.404;2023-04-01T01:24:07;17.57;;;9.97;;
11675;SDS011;5894;42.768;23.404;2023-04-01T01:26:53;14.50;;;9.10;;
11675;SDS011;5894;42.768;23.404;2023-04-01T01:35:28;14.93;;;9.10;;
11675;SDS011;5894;42.768;23.404;2023-04-01T01:37:58;18.73;;;9.27;;
11675;SDS011;5894;42.768;23.404;2023-04-01T01:40:28;16.37;;;8.67;;
11675;SDS011;5894;42.768;23.404;2023-04-01T01:43:00;17.53;;;8.43;;
11675;SDS011;5894;42.768;23.404;2023-04-01T01:45:32;15.90;;;8.03;;
11675;SDS011;5894;42.768;23.404;2023-04-01T01:48:01;13.30;;;8.33;;
11675;SDS011;5894;42.768;23.404;2023-04-01T01:50:31;14.53;;;7.87;;
11675;SDS011;5894;42.768;23.404;2023-04-01T01:53:02;14.40;;;8.07;;
11675;SDS011;5894;42.768;23.404;2023-04-01T01:55:30;14.70;;;7.93;;
11675;SDS011;5894;42.768;23.404;2023-04-01T01:57:59;11.60;;;7.50;;
11675;SDS011;5894;42.768;23.404;2023-04-01T02:00:30;11.43;;;7.10;;
11675;SDS011;5894;42.768;23.404;2023-04-01T02:02:58;11.17;;;7.30;;
11675;SDS011;5894;42.768;23.404;2023-04-01T02:05:27;14.87;;;7.30;;
11675;SDS011;5894;42.768;23.404;2023-04-01T02:08:06;15.00;;;7.80;;
11675;SDS011;5894;42.768;23.404;2023-04-01T02:10:36;11.87;;;7.57;;
11675;SDS011;5894;42.768;23.404;2023-04-01T02:13:08;16.53;;;7.40;;
11675;SDS011;5894;42.768;23.404;2023-04-01T02:15:45;11.10;;;7.30;;
11675;SDS011;5894;42.768;23.404;2023-04-01T02:18:16;12.07;;;6.37;;
11675;SDS011;5894;42.768;23.404;2023-04-01T02:20:45;12.80;;;6.73;;
11675;SDS011;5894;42.768;23.404;2023-04-01T02:23:14;13.60;;;7.30;;
11675;SDS011;5894;42.768;23.404;2023-04-01T02:25:41;12.27;;;7.10;;
11675;SDS011;5894;42.768;23.404;2023-04-01T02:28:10;13.10;;;6.63;;
11675;SDS011;5894;42.768;23.404;2023-04-01T02:30:41;12.97;;;6.33;;
11675;SDS011;5894;42.768;23.404;2023-04-01T02:33:11;10.13;;;6.20;;
11675;SDS011;5894;42.768;23.404;2023-04-01T02:35:38;11.70;;;6.10;;
11675;SDS011;5894;42.768;23.404;2023-04-01T02:38:06;13.20;;;5.87;;
11675;SDS011;5894;42.768;23.404;2023-04-01T02:40:47;11.87;;;6.13;;
11675;SDS011;5894;42.768;23.404;2023-04-01T02:43:14;15.40;;;6.37;;
11675;SDS011;5894;42.768;23.404;2023-04-01T02:45:42;10.67;;;6.20;;
11675;SDS011;5894;42.768;23.404;2023-04-01T02:48:09;11.07;;;6.30;;
11675;SDS011;5894;42.768;23.404;2023-04-01T02:50:37;15.20;;;7.40;;
11675;SDS011;5894;42.768;23.404;2023-04-01T02:53:05;18.70;;;7.33;;
11675;SDS011;5894;42.768;23.404;2023-04-01T02:55:32;11.77;;;7.63;;
11675;SDS011;5894;42.768;23.404;2023-04-01T02:58:00;10.53;;;6.60;;
11675;SDS011;5894;42.768;23.404;2023-04-01T03:00:28;12.03;;;6.70;;
11675;SDS011;5894;42.768;23.404;2023-04-01T03:02:56;14.73;;;7.13;;
11675;SDS011;5894;42.768;23.404;2023-04-01T03:05:23;13.70;;;6.70;;
11675;SDS011;5894;42.768;23.404;2023-04-01T03:07:50;11.27;;;7.07;;
11675;SDS011;5894;42.768;23.404;2023-04-01T03:10:17;13.37;;;7.10;;
11675;SDS011;5894;42.768;23.404;2023-04-01T03:12:44;12.87;;;7.13;;
11675;SDS011;5894;42.768;23.404;2023-04-01T03:15:12;14.57;;;7.73;;
11675;SDS011;5894;42.768;23.404;2023-04-01T03:17:40;14.07;;;8.43;;
11675;SDS011;5894;42.768;23.404;2023-04-01T03:20:12;13.87;;;8.03;;
11675;SDS011;5894;42.768;23.404;2023-04-01T03:22:39;13.13;;;8.40;;
11675;SDS011;5894;42.768;23.404;2023-04-01T03:25:06;17.23;;;8.77;;
11675;SDS011;5894;42.768;23.404;2023-04-01T03:27:34;14.73;;;8.53;;
11675;SDS011;5894;42.768;23.404;2023-04-01T03:30:01;12.73;;;8.40;;
11675;SDS011;5894;42.768;23.404;2023-04-01T03:32:30;16.40;;;8.50;;
11675;SDS011;5894;42.768;23.404;2023-04-01T03:34:57;12.70;;;8.03;;
11675;SDS011;5894;42.768;23.404;2023-04-01T03:37:24;13.90;;;7.83;;
11675;SDS011;5894;42.768;23.404;2023-04-01T03:39:51;13.97;;;7.87;;
11675;SDS011;5894;42.768;23.404;2023-04-01T03:42:18;10.63;;;7.67;;
11675;SDS011;5894;42.768;23.404;2023-04-01T03:44:45;12.77;;;7.27;;
11675;SDS011;5894;42.768;23.404;2023-04-01T03:47:12;12.07;;;7.30;;
11675;SDS011;5894;42.768;23.404;2023-04-01T03:49:40;11.20;;;7.07;;
11675;SDS011;5894;42.768;23.404;2023-04-01T03:52:08;12.00;;;6.57;;
11675;SDS011;5894;42.768;23.404;2023-04-01T03:54:36;12.97;;;7.17;;
11675;SDS011;5894;42.768;23.404;2023-04-01T03:57:03;13.10;;;7.57;;
11675;SDS011;5894;42.768;23.404;2023-04-01T03:59:32;12.80;;;7.87;;
11675;SDS011;5894;42.768;23.404;2023-04-01T04:01:59;13.83;;;7.93;;
11675;SDS011;5894;42.768;23.404;2023-04-01T04:04:27;11.17;;;6.93;;
11675;SDS011;5894;42.768;23.404;2023-04-01T04:06:55;16.07;;;9.77;;
11675;SDS011;5894;42.768;23.404;2023-04-01T04:09:23;12.03;;;7.50;;
11675;SDS011;5894;42.768;23.404;2023-04-01T04:11:50;12.13;;;6.80;;
11675;SDS011;5894;42.768;23.404;2023-04-01T04:14:17;10.67;;;5.13;;
11675;SDS011;5894;42.768;23.404;2023-04-01T04:16:45;13.47;;;6.97;;
11675;SDS011;5894;42.768;23.404;2023-04-01T04:19:12;14.27;;;7.17;;
11675;SDS011;5894;42.768;23.404;2023-04-01T04:21:39;10.03;;;6.70;;
11675;SDS011;5894;42.768;23.404;2023-04-01T04:24:08;11.53;;;7.27;;
11675;SDS011;5894;42.768;23.404;2023-04-01T04:26:56;12.93;;;7.30;;
11675;SDS011;5894;42.768;23.404;2023-04-01T04:29:23;15.47;;;7.47;;
11675;SDS011;5894;42.768;23.404;2023-04-01T04:31:50;16.63;;;8.90;;
11675;SDS011;5894;42.768;23.404;2023-04-01T04:34:17;11.03;;;7.07;;
11675;SDS011;5894;42.768;23.404;2023-04-01T04:36:44;11.90;;;7.20;;
11675;SDS011;5894;42.768;23.404;2023-04-01T04:39:13;12.80;;;7.93;;
11675;SDS011;5894;42.768;23.404;2023-04-01T04:41:42;17.07;;;7.43;;
11675;SDS011;5894;42.768;23.404;2023-04-01T04:44:08;16.37;;;8.70;;
11675;SDS011;5894;42.768;23.404;2023-04-01T04:46:36;17.17;;;8.90;;
11675;SDS011;5894;42.768;23.404;2023-04-01T04:49:13;17.27;;;9.80;;
11675;SDS011;5894;42.768;23.404;2023-04-01T04:51:40;16.87;;;8.67;;
11675;SDS011;5894;42.768;23.404;2023-04-01T04:54:07;36.40;;;15.47;;
11675;SDS011;5894;42.768;23.404;2023-04-01T04:56:59;38.47;;;21.17;;
11675;SDS011;5894;42.768;23.404;2023-04-01T04:59:30;29.20;;;17.63;;
11675;SDS011;5894;42.768;23.404;2023-04-01T05:02:03;30.57;;;17.33;;
11675;SDS011;5894;42.768;23.404;2023-04-01T05:04:30;17.97;;;12.17;;
11675;SDS011;5894;42.768;23.404;2023-04-01T05:07:02;11.97;;;8.87;;
11675;SDS011;5894;42.768;23.404;2023-04-01T05:09:30;12.33;;;8.17;;
11675;SDS011;5894;42.768;23.404;2023-04-01T05:11:59;10.43;;;7.90;;
11675;SDS011;5894;42.768;23.404;2023-04-01T05:14:32;11.53;;;7.47;;
11675;SDS011;5894;42.768;23.404;2023-04-01T05:17:08;14.37;;;9.57;;
11675;SDS011;5894;42.768;23.404;2023-04-01T05:19:36;14.67;;;9.70;;
11675;SDS011;5894;42.768;23.404;2023-04-01T05:22:03;17.73;;;11.40;;
11675;SDS011;5894;42.768;23.404;2023-04-01T05:24:31;21.03;;;9.07;;
11675;SDS011;5894;42.768;23.404;2023-04-01T05:26:59;17.60;;;9.20;;
11675;SDS011;5894;42.768;23.404;2023-04-01T05:29:27;19.87;;;11.43;;
11675;SDS011;5894;42.768;23.404;2023-04-01T05:32:02;18.63;;;11.70;;
11675;SDS011;5894;42.768;23.404;2023-04-01T05:34:29;17.80;;;11.93;;
11675;SDS011;5894;42.768;23.404;2023-04-01T05:36:55;18.57;;;11.40;;
11675;SDS011;5894;42.768;23.404;2023-04-01T05:39:22;16.87;;;11.23;;
11675;SDS011;5894;42.768;23.404;2023-04-01T05:41:49;17.67;;;10.97;;
11675;SDS011;5894;42.768;23.404;2023-04-01T05:44:17;21.90;;;13.50;;
11675;SDS011;5894;42.768;23.404;2023-04-01T05:46:47;21.23;;;14.30;;
11675;SDS011;5894;42.768;23.404;2023-04-01T05:49:19;23.13;;;14.90;;
11675;SDS011;5894;42.768;23.404;2023-04-01T05:51:47;22.77;;;14.77;;
11675;SDS011;5894;42.768;23.404;2023-04-01T05:54:13;24.80;;;11.53;;
11675;SDS011;5894;42.768;23.404;2023-04-01T05:56:42;19.93;;;10.30;;
11675;SDS011;5894;42.768;23.404;2023-04-01T05:59:10;13.17;;;8.63;;
11675;SDS011;5894;42.768;23.404;2023-04-01T06:01:39;22.90;;;10.27;;
11675;SDS011;5894;42.768;23.404;2023-04-01T06:04:06;18.77;;;9.67;;
11675;SDS011;5894;42.768;23.404;2023-04-01T06:06:32;19.20;;;10.43;;
11675;SDS011;5894;42.768;23.404;2023-04-01T06:09:07;13.43;;;7.83;;
11675;SDS011;5894;42.768;23.404;2023-04-01T06:11:46;13.77;;;7.17;;
11675;SDS011;5894;42.768;23.404;2023-04-01T06:14:27;11.47;;;6.27;;
11675;SDS011;5894;42.768;23.404;2023-04-01T06:17:09;21.07;;;6.70;;
11675;SDS011;5894;42.768;23.404;2023-04-01T06:19:48;16.60;;;7.90;;
11675;SDS011;5894;42.768;23.404;2023-04-01T06:25:29;16.03;;;8.30;;
11675;SDS011;5894;42.768;23.404;2023-04-01T06:28:07;17.07;;;9.67;;
11675;SDS011;5894;42.768;23.404;2023-04-01T06:30:59;24.37;;;12.23;;
11675;SDS011;5894;42.768;23.404;2023-04-01T06:33:48;15.87;;;8.40;;
11675;SDS011;5894;42.768;23.404;2023-04-01T06:36:42;21.20;;;11.13;;
11675;SDS011;5894;42.768;23.404;2023-04-01T06:39:26;20.80;;;12.17;;
11675;SDS011;5894;42.768;23.404;2023-04-01T06:42:11;22.47;;;10.17;;
11675;SDS011;5894;42.768;23.404;2023-04-01T06:44:52;16.70;;;8.27;;
11675;SDS011;5894;42.768;23.404;2023-04-01T06:47:57;15.23;;;7.40;;
11675;SDS011;5894;42.768;23.404;2023-04-01T06:51:19;12.23;;;6.63;;
11675;SDS011;5894;42.768;23.404;2023-04-01T06:54:11;9.93;;;4.80;;
11675;SDS011;5894;42.768;23.404;2023-04-01T06:57:02;13.13;;;5.28;;
11675;SDS011;5894;42.768;23.404;2023-04-01T06:59:35;9.35;;;4.13;;
11675;SDS011;5894;42.768;23.404;2023-04-01T07:02:05;8.93;;;4.05;;
11675;SDS011;5894;42.768;23.404;2023-04-01T07:04:46;7.32;;;3.80;;
11675;SDS011;5894;42.768;23.404;2023-04-01T07:07:19;8.93;;;3.72;;
11675;SDS011;5894;42.768;23.404;2023-04-01T07:09:58;6.97;;;3.47;;
11675;SDS011;5894;42.768;23.404;2023-04-01T07:12:31;12.43;;;4.40;;
11675;SDS011;5894;42.768;23.404;2023-04-01T07:15:24;12.52;;;5.10;;
11675;SDS011;5894;42.768;23.404;2023-04-01T07:17:55;8.73;;;3.33;;
11675;SDS011;5894;42.768;23.404;2023-04-01T07:20:31;4.05;;;2.63;;
11675;SDS011;5894;42.768;23.404;2023-04-01T07:23:04;5.13;;;2.85;;
11675;SDS011;5894;42.768;23.404;2023-04-01T07:25:51;6.50;;;2.88;;
11675;SDS011;5894;42.768;23.404;2023-04-01T07:28:40;4.80;;;2.92;;
11675;SDS011;5894;42.768;23.404;2023-04-01T07:31:34;4.03;;;2.72;;
11675;SDS011;5894;42.768;23.404;2023-04-01T07:34:17;6.93;;;2.80;;
11675;SDS011;5894;42.768;23.404;2023-04-01T07:36:48;7.93;;;3.28;;
11675;SDS011;5894;42.768;23.404;2023-04-01T07:39:27;5.38;;;3.08;;
11675;SDS011;5894;42.768;23.404;2023-04-01T07:42:24;3.97;;;2.45;;
11675;SDS011;5894;42.768;23.404;2023-04-01T07:44:59;5.70;;;3.20;;
11675;SDS011;5894;42.768;23.404;2023-04-01T07:47:41;9.82;;;3.22;;
11675;SDS011;5894;42.768;23.404;2023-04-01T07:50:21;6.28;;;2.63;;
11675;SDS011;5894;42.768;23.404;2023-04-01T07:52:57;8.05;;;3.08;;
11675;SDS011;5894;42.768;23.404;2023-04-01T07:55:36;5.55;;;2.55;;
11675;SDS011;5894;42.768;23.404;2023-04-01T07:58:10;5.35;;;2.38;;
11675;SDS011;5894;42.768;23.404;2023-04-01T08:00:45;10.27;;;3.03;;
11675;SDS011;5894;42.768;23.404;2023-04-01T08:03:31;8.13;;;2.97;;
11675;SDS011;5894;42.768;23.404;2023-04-01T08:06:07;5.88;;;3.05;;
11675;SDS011;5894;42.768;23.404;2023-04-01T08:08:44;7.22;;;2.90;;
11675;SDS011;5894;42.768;23.404;2023-04-01T08:11:56;3.92;;;2.63;;
11675;SDS011;5894;42.768;23.404;2023-04-01T08:14:52;16.85;;;3.63;;
11675;SDS011;5894;42.768;23.404;2023-04-01T08:17:28;5.30;;;2.35;;
11675;SDS011;5894;42.768;23.404;2023-04-01T08:20:14;9.82;;;2.83;;
11675;SDS011;5894;42.768;23.404;2023-04-01T08:22:48;5.53;;;2.70;;
11675;SDS011;5894;42.768;23.404;2023-04-01T08:25:26;5.10;;;2.90;;
11675;SDS011;5894;42.768;23.404;2023-04-01T08:27:59;5.85;;;3.33;;
11675;SDS011;5894;42.768;23.404;2023-04-01T08:30:36;6.18;;;3.00;;
11675;SDS011;5894;42.768;23.404;2023-04-01T08:33:10;5.57;;;3.17;;
11675;SDS011;5894;42.768;23.404;2023-04-01T08:35:43;5.55;;;2.90;;
11675;SDS011;5894;42.768;23.404;2023-04-01T08:38:16;5.82;;;2.95;;
11675;SDS011;5894;42.768;23.404;2023-04-01T08:41:01;4.47;;;2.78;;
11675;SDS011;5894;42.768;23.404;2023-04-01T08:53:19;7.65;;;3.35;;
11675;SDS011;5894;42.768;23.404;2023-04-01T08:55:56;6.50;;;4.03;;
11675;SDS011;5894;42.768;23.404;2023-04-01T08:58:37;9.20;;;3.72;;
11675;SDS011;5894;42.768;23.404;2023-04-01T09:01:26;5.07;;;3.00;;
11675;SDS011;5894;42.768;23.404;2023-04-01T09:04:41;5.63;;;2.67;;
11675;SDS011;5894;42.768;23.404;2023-04-01T09:07:22;7.72;;;3.63;;
11675;SDS011;5894;42.768;23.404;2023-04-01T09:10:13;7.97;;;3.30;;
11675;SDS011;5894;42.768;23.404;2023-04-01T09:13:13;7.32;;;3.47;;
11675;SDS011;5894;42.768;23.404;2023-04-01T09:16:01;6.53;;;3.05;;
11675;SDS011;5894;42.768;23.404;2023-04-01T09:18:44;5.05;;;2.80;;
11675;SDS011;5894;42.768;23.404;2023-04-01T09:24:24;5.28;;;2.70;;
11675;SDS011;5894;42.768;23.404;2023-04-01T09:27:03;8.65;;;2.78;;
11675;SDS011;5894;42.768;23.404;2023-04-01T09:29:39;6.18;;;2.92;;
11675;SDS011;5894;42.768;23.404;2023-04-01T09:32:42;6.68;;;2.80;;
11675;SDS011;5894;42.768;23.404;2023-04-01T09:35:35;7.20;;;3.60;;
11675;SDS011;5894;42.768;23.404;2023-04-01T09:38:17;5.05;;;2.70;;
11675;SDS011;5894;42.768;23.404;2023-04-01T09:40:50;5.60;;;2.90;;
11675;SDS011;5894;42.768;23.404;2023-04-01T09:43:54;6.40;;;2.92;;
11675;SDS011;5894;42.768;23.404;2023-04-01T09:46:30;6.40;;;3.03;;
11675;SDS011;5894;42.768;23.404;2023-04-01T09:49:11;8.27;;;2.90;;
11675;SDS011;5894;42.768;23.404;2023-04-01T09:52:08;2.90;;;2.30;;
11675;SDS011;5894;42.768;23.404;2023-04-01T09:54:50;7.20;;;2.80;;
11675;SDS011;5894;42.768;23.404;2023-04-01T09:57:37;3.85;;;2.60;;
11675;SDS011;5894;42.768;23.404;2023-04-01T10:13:07;5.22;;;2.75;;
11675;SDS011;5894;42.768;23.404;2023-04-01T10:15:56;4.65;;;2.45;;
11675;SDS011;5894;42.768;23.404;2023-04-01T10:19:03;9.55;;;2.72;;
11675;SDS011;5894;42.768;23.404;2023-04-01T10:21:51;6.15;;;2.45;;
11675;SDS011;5894;42.768;23.404;2023-04-01T10:24:40;3.40;;;2.20;;
11675;SDS011;5894;42.768;23.404;2023-04-01T10:27:30;6.38;;;2.83;;
11675;SDS011;5894;42.768;23.404;2023-04-01T10:30:57;6.28;;;3.67;;
11675;SDS011;5894;42.768;23.404;2023-04-01T10:34:02;7.35;;;3.53;;
11675;SDS011;5894;42.768;23.404;2023-04-01T10:36:53;10.15;;;4.10;;
11675;SDS011;5894;42.768;23.404;2023-04-01T10:43:13;15.25;;;4.47;;
11675;SDS011;5894;42.768;23.404;2023-04-01T10:49:20;13.30;;;5.20;;
11675;SDS011;5894;42.768;23.404;2023-04-01T10:55:49;12.65;;;4.90;;
11675;SDS011;5894;42.768;23.404;2023-04-01T10:58:59;15.25;;;4.80;;
11675;SDS011;5894;42.768;23.404;2023-04-01T11:02:28;8.65;;;3.50;;
11675;SDS011;5894;42.768;23.404;2023-04-01T11:05:49;9.25;;;3.50;;
11675;SDS011;5894;42.768;23.404;2023-04-01T11:11:47;6.53;;;3.22;;
11675;SDS011;5894;42.768;23.404;2023-04-01T11:17:55;6.82;;;3.13;;
11675;SDS011;5894;42.768;23.404;2023-04-01T11:20:45;5.57;;;2.65;;
11675;SDS011;5894;42.768;23.404;2023-04-01T11:23:32;8.82;;;2.70;;
11675;SDS011;5894;42.768;23.404;2023-04-01T11:26:17;4.82;;;2.90;;
11675;SDS011;5894;42.768;23.404;2023-04-01T11:29:22;5.15;;;2.80;;
11675;SDS011;5894;42.768;23.404;2023-04-01T11:32:20;7.63;;;3.47;;
11675;SDS011;5894;42.768;23.404;2023-04-01T11:35:06;21.42;;;8.77;;
11675;SDS011;5894;42.768;23.404;2023-04-01T11:37:50;25.30;;;11.43;;
11675;SDS011;5894;42.768;23.404;2023-04-01T11:40:54;32.80;;;13.10;;
11675;SDS011;5894;42.768;23.404;2023-04-01T11:43:43;10.50;;;3.90;;
11675;SDS011;5894;42.768;23.404;2023-04-01T11:46:56;5.53;;;3.45;;
11675;SDS011;5894;42.768;23.404;2023-04-01T11:49:41;8.52;;;2.90;;
11675;SDS011;5894;42.768;23.404;2023-04-01T11:52:40;11.60;;;3.05;;
11675;SDS011;5894;42.768;23.404;2023-04-01T11:55:35;4.53;;;2.38;;
11675;SDS011;5894;42.768;23.404;2023-04-01T11:58:19;8.10;;;2.30;;
11675;SDS011;5894;42.768;23.404;2023-04-01T12:01:04;8.32;;;2.75;;
11675;SDS011;5894;42.768;23.404;2023-04-01T12:03:46;12.73;;;6.32;;
11675;SDS011;5894;42.768;23.404;2023-04-01T12:06:24;9.85;;;4.28;;
11675;SDS011;5894;42.768;23.404;2023-04-01T12:09:01;7.75;;;3.90;;
11675;SDS011;5894;42.768;23.404;2023-04-01T12:11:37;7.20;;;3.22;;
11675;SDS011;5894;42.768;23.404;2023-04-01T12:14:09;10.02;;;3.33;;
11675;SDS011;5894;42.768;23.404;2023-04-01T12:16:49;10.45;;;3.20;;
11675;SDS011;5894;42.768;23.404;2023-04-01T12:19:24;5.25;;;2.40;;
11675;SDS011;5894;42.768;23.404;2023-04-01T12:22:03;6.70;;;2.80;;
11675;SDS011;5894;42.768;23.404;2023-04-01T12:24:45;6.68;;;3.10;;
11675;SDS011;5894;42.768;23.404;2023-04-01T12:27:20;6.55;;;3.22;;
11675;SDS011;5894;42.768;23.404;2023-04-01T12:33:02;7.70;;;3.28;;
11675;SDS011;5894;42.768;23.404;2023-04-01T12:35:44;4.70;;;3.13;;
11675;SDS011;5894;42.768;23.404;2023-04-01T12:38:22;6.00;;;3.20;;
11675;SDS011;5894;42.768;23.404;2023-04-01T12:41:05;5.65;;;3.33;;
11675;SDS011;5894;42.768;23.404;2023-04-01T12:43:52;6.95;;;3.40;;
11675;SDS011;5894;42.768;23.404;2023-04-01T12:46:38;6.07;;;3.45;;
11675;SDS011;5894;42.768;23.404;2023-04-01T12:49:21;10.45;;;4.60;;
11675;SDS011;5894;42.768;23.404;2023-04-01T12:52:03;7.18;;;4.10;;
11675;SDS011;5894;42.768;23.404;2023-04-01T13:01:00;4.82;;;2.47;;
11675;SDS011;5894;42.768;23.404;2023-04-01T13:03:48;6.07;;;3.45;;
11675;SDS011;5894;42.768;23.404;2023-04-01T13:06:33;10.73;;;7.22;;
11675;SDS011;5894;42.768;23.404;2023-04-01T13:09:18;9.70;;;6.63;;
11675;SDS011;5894;42.768;23.404;2023-04-01T13:12:00;8.95;;;5.50;;
11675;SDS011;5894;42.768;23.404;2023-04-01T13:17:45;11.35;;;6.30;;
11675;SDS011;5894;42.768;23.404;2023-04-01T13:20:21;6.78;;;5.38;;
11675;SDS011;5894;42.768;23.404;2023-04-01T13:23:06;7.28;;;4.03;;
11675;SDS011;5894;42.768;23.404;2023-04-01T13:25:41;10.52;;;7.15;;
11675;SDS011;5894;42.768;23.404;2023-04-01T13:28:15;10.93;;;7.53;;
11675;SDS011;5894;42.768;23.404;2023-04-01T13:30:48;11.57;;;8.02;;
11675;SDS011;5894;42.768;23.404;2023-04-01T13:33:27;12.60;;;8.18;;
11675;SDS011;5894;42.768;23.404;2023-04-01T13:36:06;12.48;;;8.13;;
11675;SDS011;5894;42.768;23.404;2023-04-01T13:38:44;11.18;;;6.28;;
11675;SDS011;5894;42.768;23.404;2023-04-01T13:41:32;5.45;;;3.25;;
11675;SDS011;5894;42.768;23.404;2023-04-01T13:44:11;4.65;;;2.40;;
11675;SDS011;5894;42.768;23.404;2023-04-01T13:46:48;3.70;;;1.80;;
11675;SDS011;5894;42.768;23.404;2023-04-01T13:52:37;3.83;;;2.30;;
11675;SDS011;5894;42.768;23.404;2023-04-01T13:55:23;2.05;;;1.60;;
11675;SDS011;5894;42.768;23.404;2023-04-01T14:01:10;4.93;;;2.55;;
11675;SDS011;5894;42.768;23.404;2023-04-01T14:03:59;3.95;;;2.08;;
11675;SDS011;5894;42.768;23.404;2023-04-01T14:06:44;2.53;;;1.67;;
11675;SDS011;5894;42.768;23.404;2023-04-01T14:12:13;3.80;;;1.85;;
11675;SDS011;5894;42.768;23.404;2023-04-01T14:14:59;3.38;;;1.83;;
11675;SDS011;5894;42.768;23.404;2023-04-01T14:17:37;3.70;;;2.08;;
11675;SDS011;5894;42.768;23.404;2023-04-01T14:23:11;3.20;;;2.10;;
11675;SDS011;5894;42.768;23.404;2023-04-01T14:28:37;3.55;;;1.90;;
11675;SDS011;5894;42.768;23.404;2023-04-01T14:31:19;2.28;;;1.60;;
11675;SDS011;5894;42.768;23.404;2023-04-01T14:33:59;2.75;;;1.83;;
11675;SDS011;5894;42.768;23.404;2023-04-01T14:36:38;3.88;;;2.05;;
11675;SDS011;5894;42.768;23.404;2023-04-01T14:39:15;4.03;;;2.55;;
11675;SDS011;5894;42.768;23.404;2023-04-01T14:41:57;2.25;;;1.70;;
11675;SDS011;5894;42.768;23.404;2023-04-01T14:47:43;5.13;;;3.03;;
11675;SDS011;5894;42.768;23.404;2023-04-01T14:50:15;3.75;;;2.17;;
11675;SDS011;5894;42.768;23.404;2023-04-01T14:52:45;4.70;;;2.00;;
11675;SDS011;5894;42.768;23.404;2023-04-01T14:55:25;3.20;;;1.90;;
11675;SDS011;5894;42.768;23.404;2023-04-01T14:58:08;6.20;;;3.30;;
11675;SDS011;5894;42.768;23.404;2023-04-01T15:00:41;3.97;;;3.00;;
11675;SDS011;5894;42.768;23.404;2023-04-01T15:03:16;7.20;;;3.97;;
11675;SDS011;5894;42.768;23.404;2023-04-01T15:05:49;5.25;;;3.17;;
11675;SDS011;5894;42.768;23.404;2023-04-01T15:08:22;6.00;;;2.97;;
11675;SDS011;5894;42.768;23.404;2023-04-01T15:11:01;4.80;;;3.10;;
11675;SDS011;5894;42.768;23.404;2023-04-01T15:13:47;2.90;;;2.30;;
11675;SDS011;5894;42.768;23.404;2023-04-01T15:16:32;3.47;;;2.42;;
11675;SDS011;5894;42.768;23.404;2023-04-01T15:19:08;7.55;;;3.30;;
11675;SDS011;5894;42.768;23.404;2023-04-01T15:21:50;5.82;;;2.63;;
11675;SDS011;5894;42.768;23.404;2023-04-01T15:24:31;5.13;;;2.85;;
11675;SDS011;5894;42.768;23.404;2023-04-01T15:27:19;4.72;;;2.35;;
11675;SDS011;5894;42.768;23.404;2023-04-01T15:33:02;3.42;;;2.22;;
11675;SDS011;5894;42.768;23.404;2023-04-01T15:35:42;7.75;;;4.22;;
11675;SDS011;5894;42.768;23.404;2023-04-01T15:38:17;6.03;;;3.78;;
11675;SDS011;5894;42.768;23.404;2023-04-01T15:40:55;10.60;;;4.07;;
11675;SDS011;5894;42.768;23.404;2023-04-01T15:43:31;8.25;;;5.38;;
11675;SDS011;5894;42.768;23.404;2023-04-01T15:49:09;5.93;;;3.97;;
11675;SDS011;5894;42.768;23.404;2023-04-01T15:51:46;2.47;;;1.50;;
11675;SDS011;5894;42.768;23.404;2023-04-01T15:57:24;7.45;;;2.08;;
11675;SDS011;5894;42.768;23.404;2023-04-01T16:02:55;3.47;;;1.50;;
11675;SDS011;5894;42.768;23.404;2023-04-01T16:05:42;1.60;;;1.50;;
11675;SDS011;5894;42.768;23.404;2023-04-01T16:08:29;2.53;;;2.17;;
11675;SDS011;5894;42.768;23.404;2023-04-01T16:14:55;3.10;;;2.63;;
11675;SDS011;5894;42.768;23.404;2023-04-01T16:17:41;5.20;;;2.63;;
11675;SDS011;5894;42.768;23.404;2023-04-01T16:20:22;2.87;;;2.57;;
11675;SDS011;5894;42.768;23.404;2023-04-01T16:22:54;3.23;;;2.80;;
11675;SDS011;5894;42.768;23.404;2023-04-01T16:25:31;3.43;;;2.50;;
11675;SDS011;5894;42.768;23.404;2023-04-01T16:28:04;2.90;;;2.60;;
11675;SDS011;5894;42.768;23.404;2023-04-01T16:30:43;3.37;;;3.07;;
11675;SDS011;5894;42.768;23.404;2023-04-01T16:33:17;6.03;;;4.63;;
11675;SDS011;5894;42.768;23.404;2023-04-01T16:35:53;4.10;;;3.70;;
11675;SDS011;5894;42.768;23.404;2023-04-01T16:38:25;4.80;;;4.27;;
11675;SDS011;5894;42.768;23.404;2023-04-01T16:41:09;7.17;;;5.90;;
11675;SDS011;5894;42.768;23.404;2023-04-01T16:43:41;6.57;;;5.07;;
11675;SDS011;5894;42.768;23.404;2023-04-01T16:46:21;4.70;;;4.20;;
11675;SDS011;5894;42.768;23.404;2023-04-01T16:48:59;3.40;;;3.10;;
11675;SDS011;5894;42.768;23.404;2023-04-01T16:51:37;3.37;;;3.07;;
11675;SDS011;5894;42.768;23.404;2023-04-01T16:54:14;3.10;;;2.80;;
11675;SDS011;5894;42.768;23.404;2023-04-01T16:56:47;3.37;;;3.07;;
11675;SDS011;5894;42.768;23.404;2023-04-01T16:59:18;3.77;;;3.10;;
11675;SDS011;5894;42.768;23.404;2023-04-01T17:01:52;3.73;;;3.40;;
11675;SDS011;5894;42.768;23.404;2023-04-01T17:04:23;2.90;;;2.53;;
11675;SDS011;5894;42.768;23.404;2023-04-01T17:07:00;2.43;;;2.23;;
11675;SDS011;5894;42.768;23.404;2023-04-01T17:09:51;2.60;;;2.33;;
11675;SDS011;5894;42.768;23.404;2023-04-01T17:12:30;2.53;;;2.03;;
11675;SDS011;5894;42.768;23.404;2023-04-01T17:15:05;2.13;;;1.93;;
11675;SDS011;5894;42.768;23.404;2023-04-01T17:17:45;1.90;;;1.80;;
11675;SDS011;5894;42.768;23.404;2023-04-01T17:20:20;2.30;;;2.10;;